createdAt,value
2023-02-02T00:02:09.761Z,100740.75
2023-02-02T00:04:36.755Z,100739.03
2023-02-02T00:07:05.208Z,100735.56
2023-02-02T00:09:33.474Z,100733.84
2023-02-02T00:12:01.008Z,100744.22
2023-02-02T00:14:27.779Z,100754.63
2023-02-02T00:16:55.933Z,100745.94
2023-02-02T00:19:26.383Z,100745.09
2023-02-02T00:21:54.978Z,100743.34
2023-02-02T00:24:21.993Z,100745.09
2023-02-02T00:26:50.574Z,100745.94
2023-02-02T00:29:23.442Z,100753.75
2023-02-02T00:31:50.681Z,100764.13
2023-02-02T00:34:18.000Z,100766.75
2023-02-02T00:36:47.003Z,100777.16
2023-02-02T00:39:27.422Z,100789.25
2023-02-02T00:41:54.824Z,100780.59
2023-02-02T00:44:40.165Z,100779.75
2023-02-02T00:47:06.702Z,100789.25
2023-02-02T00:49:33.347Z,100785.81
2023-02-02T00:52:00.440Z,100791.00
2023-02-02T00:54:27.537Z,100801.38
2023-02-02T00:56:54.256Z,100801.38
2023-02-02T00:59:20.849Z,100809.16
2023-02-02T01:01:47.709Z,100813.50
2023-02-02T01:04:14.393Z,100821.28
2023-02-02T01:06:40.956Z,100828.22
2023-02-02T01:09:08.236Z,100827.31
2023-02-02T01:11:35.098Z,100835.13
2023-02-02T01:14:01.632Z,100825.59
2023-02-02T01:16:28.606Z,100836.84
2023-02-02T01:18:55.128Z,100849.81
2023-02-02T01:21:22.861Z,100853.28
2023-02-02T01:23:50.499Z,100843.75
2023-02-02T01:26:17.942Z,100848.94
2023-02-02T01:28:45.558Z,100851.53
2023-02-02T01:31:15.524Z,100861.94
2023-02-02T01:33:43.883Z,100861.06
2023-02-02T01:36:13.880Z,100867.13
2023-02-02T01:38:41.006Z,100861.06
2023-02-02T01:41:08.832Z,100863.63
2023-02-02T01:43:41.594Z,100874.91
2023-02-02T01:46:15.374Z,100880.09
2023-02-02T01:49:02.353Z,100887.03
2023-02-02T01:51:41.926Z,100889.66
2023-02-02T01:54:14.084Z,100893.09
2023-02-02T01:56:46.186Z,100900.03
2023-02-02T01:59:16.018Z,100893.09
2023-02-02T02:01:46.623Z,100902.63
2023-02-02T02:04:13.899Z,100905.22
2023-02-02T02:06:40.572Z,100903.50
2023-02-02T02:09:07.541Z,100907.84
2023-02-02T02:11:35.888Z,100923.41
2023-02-02T02:14:25.423Z,100927.75
2023-02-02T02:17:04.507Z,100929.50
2023-02-02T02:20:11.853Z,100926.00
2023-02-02T02:23:15.155Z,100935.56
2023-02-02T02:26:19.524Z,100941.59
2023-02-02T02:29:07.184Z,100939.00
2023-02-02T02:31:55.997Z,100947.69
2023-02-02T02:34:36.951Z,100964.13
2023-02-02T02:37:11.903Z,100958.94
2023-02-02T02:39:48.971Z,100963.25
2023-02-02T02:42:20.464Z,100971.06
2023-02-02T02:44:50.773Z,100972.75
2023-02-02T02:47:19.365Z,100970.16
2023-02-02T02:49:48.367Z,100979.69
2023-02-02T02:52:15.950Z,100988.34
2023-02-02T02:54:50.457Z,100982.28
2023-02-02T02:57:30.628Z,100970.16
2023-02-02T03:00:15.725Z,100976.25
2023-02-02T03:02:57.378Z,100979.69
2023-02-02T03:05:31.947Z,100985.75
2023-02-02T03:08:08.648Z,100987.44
2023-02-02T03:10:37.928Z,100990.91
2023-02-02T03:13:08.779Z,100986.59
2023-02-02T03:15:35.405Z,100992.63
2023-02-02T03:18:02.371Z,100994.34
2023-02-02T03:20:28.911Z,100999.50
2023-02-02T03:22:55.555Z,101004.69
2023-02-02T03:25:23.823Z,101020.25
2023-02-02T03:27:51.274Z,101011.56
2023-02-02T03:30:18.330Z,101021.94
2023-02-02T03:32:45.668Z,101026.25
2023-02-02T03:35:12.357Z,101041.84
2023-02-02T03:37:39.054Z,101034.88
2023-02-02T03:40:06.472Z,101044.38
2023-02-02T03:42:32.961Z,101048.69
2023-02-02T03:44:59.687Z,101061.66
2023-02-02T03:47:29.864Z,101061.66
2023-02-02T03:49:56.739Z,101064.25
2023-02-02T03:52:26.033Z,101069.41
2023-02-02T03:54:55.109Z,101065.94
2023-02-02T03:57:21.698Z,101078.94
2023-02-02T03:59:48.192Z,101070.28
2023-02-02T04:02:14.934Z,101081.53
2023-02-02T04:04:41.563Z,101078.91
2023-02-02T04:07:08.404Z,101071.09
2023-02-02T04:09:35.075Z,101072.81
2023-02-02T04:12:01.652Z,101077.13
2023-02-02T04:14:28.173Z,101085.78
2023-02-02T04:16:54.978Z,101092.69
2023-02-02T04:19:21.568Z,101091.78
2023-02-02T04:21:48.064Z,101098.69
2023-02-02T04:24:15.398Z,101101.25
2023-02-02T04:26:42.325Z,101103.81
2023-02-02T04:29:08.984Z,101102.06
2023-02-02T04:31:35.778Z,101102.06
2023-02-02T04:34:03.430Z,101102.94
2023-02-02T04:36:30.290Z,101100.34
2023-02-02T04:38:57.124Z,101111.56
2023-02-02T04:41:24.029Z,101114.16
2023-02-02T04:43:50.672Z,101118.44
2023-02-02T04:46:17.566Z,101122.75
2023-02-02T04:48:44.235Z,101127.03
2023-02-02T04:51:13.883Z,101131.34
2023-02-02T04:53:42.408Z,101131.34
2023-02-02T04:56:13.834Z,101135.63
2023-02-02T04:58:41.175Z,101138.22
2023-02-02T05:01:10.840Z,101142.56
2023-02-02T05:03:37.592Z,101139.97
2023-02-02T05:06:05.561Z,101153.78
2023-02-02T05:08:32.243Z,101154.66
2023-02-02T05:10:59.584Z,101154.66
2023-02-02T05:13:26.139Z,101165.03
2023-02-02T05:15:54.200Z,101163.31
2023-02-02T05:18:22.105Z,101163.31
2023-02-02T05:20:50.730Z,101164.16
2023-02-02T05:23:19.297Z,101158.97
2023-02-02T05:25:52.442Z,101153.78
2023-02-02T05:28:19.493Z,101165.06
2023-02-02T05:30:45.963Z,101163.34
2023-02-02T05:33:15.763Z,101163.34
2023-02-02T05:35:46.782Z,101165.13
2023-02-02T05:38:15.761Z,101177.25
2023-02-02T05:40:42.641Z,101179.88
2023-02-02T05:43:09.388Z,101174.69
2023-02-02T05:45:41.789Z,101186.00
2023-02-02T05:48:12.854Z,101187.72
2023-02-02T05:50:40.910Z,101187.75
2023-02-02T05:53:07.717Z,101186.88
2023-02-02T05:55:34.351Z,101195.56
2023-02-02T05:58:00.861Z,101200.78
2023-02-02T06:00:27.383Z,101196.44
2023-02-02T06:02:54.104Z,101207.72
2023-02-02T06:05:20.674Z,101218.13
2023-02-02T06:07:47.311Z,101211.25
2023-02-02T06:10:14.084Z,101217.31
2023-02-02T06:12:40.668Z,101222.53
2023-02-02T06:15:07.888Z,101227.72
2023-02-02T06:17:34.571Z,101232.91
2023-02-02T06:20:01.086Z,101230.31
2023-02-02T06:22:27.660Z,101235.56
2023-02-02T06:24:54.364Z,101236.41
2023-02-02T06:27:21.391Z,101245.91
2023-02-02T06:29:47.833Z,101241.59
2023-02-02T06:32:14.578Z,101244.19
2023-02-02T06:34:41.326Z,101257.19
2023-02-02T06:37:07.921Z,101270.16
2023-02-02T06:39:34.923Z,101264.97
2023-02-02T06:42:11.890Z,101274.50
2023-02-02T06:44:46.996Z,101273.59
2023-02-02T06:47:13.873Z,101274.50
2023-02-02T06:49:40.475Z,101271.91
2023-02-02T06:52:07.494Z,101274.50
2023-02-02T06:54:34.018Z,101288.31
2023-02-02T06:57:00.604Z,101290.09
2023-02-02T06:59:27.210Z,101286.63
2023-02-02T07:01:53.960Z,101282.28
2023-02-02T07:04:20.527Z,101293.53
2023-02-02T07:06:47.074Z,101302.16
2023-02-02T07:09:13.811Z,101317.72
2023-02-02T07:11:41.983Z,101319.44
2023-02-02T07:14:11.548Z,101323.72
2023-02-02T07:16:38.183Z,101328.06
2023-02-02T07:19:05.015Z,101332.34
2023-02-02T07:21:35.532Z,101338.41
2023-02-02T07:24:03.758Z,101341.00
2023-02-02T07:26:30.735Z,101347.94
2023-02-02T07:28:57.308Z,101352.25
2023-02-02T07:31:26.894Z,101353.09
2023-02-02T07:33:54.298Z,101360.84
2023-02-02T07:36:23.930Z,101360.84
2023-02-02T07:38:54.404Z,101373.78
2023-02-02T07:41:22.109Z,101371.16
2023-02-02T07:43:49.217Z,101371.09
2023-02-02T07:46:16.696Z,101376.28
2023-02-02T07:48:43.765Z,101375.41
2023-02-02T07:51:12.805Z,101377.97
2023-02-02T07:53:42.514Z,101387.44
2023-02-02T07:56:17.184Z,101396.97
2023-02-02T07:58:44.833Z,101394.34
2023-02-02T08:01:14.020Z,101409.03
2023-02-02T08:03:41.211Z,101399.50
2023-02-02T08:06:18.474Z,101407.28
2023-02-02T08:08:45.861Z,101407.28
2023-02-02T08:11:14.759Z,101415.06
2023-02-02T08:13:42.357Z,101412.47
2023-02-02T08:16:10.186Z,101415.91
2023-02-02T08:18:38.517Z,101419.38
2023-02-02T08:21:06.565Z,101424.56
2023-02-02T08:23:33.426Z,101428.06
2023-02-02T08:26:19.161Z,101434.13
2023-02-02T08:28:49.585Z,101432.44
2023-02-02T08:31:18.937Z,101433.34
2023-02-02T08:33:45.740Z,101440.28
2023-02-02T08:36:17.661Z,101441.16
2023-02-02T08:38:45.333Z,101445.50
2023-02-02T08:41:15.284Z,101448.13
2023-02-02T08:43:42.331Z,101461.13
2023-02-02T08:46:11.235Z,101455.09
2023-02-02T08:48:38.276Z,101457.72
2023-02-02T08:51:06.999Z,101454.28
2023-02-02T08:53:34.588Z,101459.50
2023-02-02T08:56:07.386Z,101463.00
2023-02-02T08:58:34.899Z,101468.22
2023-02-02T09:01:16.247Z,101473.44
2023-02-02T09:03:43.639Z,101474.31
2023-02-02T09:06:13.241Z,101481.25
2023-02-02T09:08:40.520Z,101504.69
2023-02-02T09:11:14.794Z,101500.38
2023-02-02T09:13:42.648Z,101501.25
2023-02-02T09:16:12.524Z,101502.19
2023-02-02T09:18:40.794Z,101503.09
2023-02-02T09:21:10.113Z,101504.94
2023-02-02T09:23:39.149Z,101508.41
2023-02-02T09:26:14.618Z,101505.88
2023-02-02T09:28:43.648Z,101521.56
2023-02-02T09:31:10.970Z,101524.19
2023-02-02T09:33:37.928Z,101528.56
2023-02-02T09:36:20.412Z,101529.50
2023-02-02T09:38:47.547Z,101527.81
2023-02-02T09:41:32.371Z,101540.81
2023-02-02T09:44:47.217Z,101546.13
2023-02-02T09:47:37.116Z,101556.59
2023-02-02T09:50:34.667Z,101559.31
2023-02-02T09:53:10.447Z,101561.97
2023-02-02T09:55:40.648Z,101569.78
2023-02-02T09:58:14.556Z,101569.84
2023-02-02T10:01:07.514Z,101576.84
2023-02-02T10:04:03.155Z,101579.50
2023-02-02T10:06:39.125Z,101586.47
2023-02-02T10:09:35.178Z,101582.16
2023-02-02T10:12:30.032Z,101601.28
2023-02-02T10:15:13.226Z,101587.44
2023-02-02T10:17:55.625Z,101595.31
2023-02-02T10:20:34.444Z,101593.66
2023-02-02T10:23:11.652Z,101608.44
2023-02-02T10:25:51.452Z,101609.38
2023-02-02T10:28:20.052Z,101613.78
2023-02-02T10:31:10.332Z,101617.22
2023-02-02T10:33:40.101Z,101624.22
2023-02-02T10:36:22.097Z,101632.06
2023-02-02T10:39:23.693Z,101638.22
2023-02-02T10:42:14.069Z,101646.09
2023-02-02T10:44:50.168Z,101656.56
2023-02-02T10:47:26.046Z,101657.44
2023-02-02T10:50:19.928Z,101652.28
2023-02-02T10:53:01.489Z,101663.59
2023-02-02T10:55:38.044Z,101661.88
2023-02-02T10:58:13.468Z,101670.56
2023-02-02T11:00:52.098Z,101667.13
2023-02-02T11:03:22.518Z,101666.31
2023-02-02T11:06:08.237Z,101675.03
2023-02-02T11:08:43.837Z,101667.28
2023-02-02T11:11:35.338Z,101675.09
2023-02-02T11:14:14.574Z,101679.47
2023-02-02T11:16:44.541Z,101681.25
2023-02-02T11:19:16.994Z,101678.69
2023-02-02T11:21:54.063Z,101678.69
2023-02-02T11:24:31.418Z,101680.47
2023-02-02T11:27:05.500Z,101690.88
2023-02-02T11:29:45.265Z,101688.28
2023-02-02T11:32:38.184Z,101683.97
2023-02-02T11:35:21.322Z,101684.84
2023-02-02T11:37:57.313Z,101682.22
2023-02-02T11:40:28.606Z,101689.16
2023-02-02T11:42:57.698Z,101693.50
2023-02-02T11:45:45.415Z,101692.63
2023-02-02T11:48:24.263Z,101695.16
2023-02-02T11:50:56.136Z,101692.53
2023-02-02T11:53:24.443Z,101695.13
2023-02-02T11:55:52.508Z,101693.44
2023-02-02T11:58:20.245Z,101683.88
2023-02-02T12:00:52.253Z,101684.72
2023-02-02T12:03:30.145Z,101690.00
2023-02-02T12:05:57.264Z,101684.84
2023-02-02T12:08:24.613Z,101681.41
2023-02-02T12:10:59.690Z,101693.63
2023-02-02T12:13:46.782Z,101697.19
2023-02-02T12:16:36.753Z,101703.31
2023-02-02T12:19:18.748Z,101701.66
2023-02-02T12:21:51.383Z,101700.78
2023-02-02T12:24:30.470Z,101710.38
2023-02-02T12:27:08.565Z,101703.44
2023-02-02T12:29:51.638Z,101711.28
2023-02-02T12:32:34.278Z,101713.91
2023-02-02T12:35:21.609Z,101713.91
2023-02-02T12:38:05.474Z,101717.44
2023-02-02T12:41:00.199Z,101709.63
2023-02-02T12:43:45.408Z,101713.09
2023-02-02T12:46:21.118Z,101711.41
2023-02-02T12:49:19.127Z,101716.63
2023-02-02T12:52:11.603Z,101725.34
2023-02-02T12:55:06.179Z,101714.94
2023-02-02T12:57:39.762Z,101717.56
2023-02-02T13:00:38.547Z,101718.47
2023-02-02T13:03:17.944Z,101714.19
2023-02-02T13:05:54.645Z,101714.19
2023-02-02T13:08:42.757Z,101713.34
2023-02-02T13:11:30.906Z,101715.97
2023-02-02T13:14:05.799Z,101723.78
2023-02-02T13:16:37.077Z,101728.09
2023-02-02T13:19:13.850Z,101730.69
2023-02-02T13:21:43.966Z,101734.16
2023-02-02T13:24:18.351Z,101733.28
2023-02-02T13:26:48.541Z,101732.38
2023-02-02T13:29:47.650Z,101732.38
2023-02-02T13:32:36.309Z,101741.94
2023-02-02T13:35:25.359Z,101745.38
2023-02-02T13:38:10.643Z,101741.00
2023-02-02T13:40:40.327Z,101740.09
2023-02-02T13:43:29.401Z,101754.88
2023-02-02T13:46:03.502Z,101753.13
2023-02-02T13:48:51.990Z,101751.38
2023-02-02T13:51:31.042Z,101749.63
2023-02-02T13:54:22.504Z,101746.13
2023-02-02T13:57:07.537Z,101752.19
2023-02-02T13:59:59.754Z,101749.53
2023-02-02T14:02:35.377Z,101757.34
2023-02-02T14:05:05.814Z,101757.34
2023-02-02T14:07:41.688Z,101758.19
2023-02-02T14:10:26.590Z,101754.69
2023-02-02T14:12:56.284Z,101752.94
2023-02-02T14:15:40.999Z,101755.53
2023-02-02T14:18:07.815Z,101765.09
2023-02-02T14:20:47.946Z,101770.31
2023-02-02T14:23:53.013Z,101766.84
2023-02-02T14:26:41.824Z,101770.28
2023-02-02T14:29:33.578Z,101777.19
2023-02-02T14:32:11.428Z,101772.84
2023-02-02T14:34:42.830Z,101774.53
2023-02-02T14:37:24.597Z,101777.94
2023-02-02T14:40:23.629Z,101777.94
2023-02-02T14:43:49.674Z,101789.19
2023-02-02T14:46:23.615Z,101797.00
2023-02-02T14:48:52.940Z,101800.44
2023-02-02T14:51:23.687Z,101800.41
2023-02-02T14:53:59.288Z,101811.69
2023-02-02T14:56:51.042Z,101810.81
2023-02-02T14:59:22.366Z,101810.75
2023-02-02T15:02:15.004Z,101810.72
2023-02-02T15:04:42.438Z,101816.81
2023-02-02T15:07:24.429Z,101821.09
2023-02-02T15:09:56.381Z,101825.44
2023-02-02T15:12:31.389Z,101825.44
2023-02-02T15:15:08.232Z,101829.72
2023-02-02T15:17:41.244Z,101830.53
2023-02-02T15:20:36.232Z,101831.34
2023-02-02T15:23:07.578Z,101834.78
2023-02-02T15:25:49.708Z,101837.34
2023-02-02T15:28:45.900Z,101846.88
2023-02-02T15:31:23.420Z,101850.31
2023-02-02T15:33:54.638Z,101852.00
2023-02-02T15:36:37.116Z,101858.00
2023-02-02T15:39:28.504Z,101864.00
2023-02-02T15:42:17.232Z,101866.56
2023-02-02T15:44:44.151Z,101873.41
2023-02-02T15:47:19.737Z,101878.59
2023-02-02T15:49:46.461Z,101884.59
2023-02-02T15:52:21.841Z,101878.44
2023-02-02T15:54:54.751Z,101884.44
2023-02-02T15:57:44.824Z,101888.72
2023-02-02T16:00:27.147Z,101897.31
2023-02-02T16:03:14.919Z,101903.25
2023-02-02T16:05:43.945Z,101905.78
2023-02-02T16:08:20.030Z,101904.81
2023-02-02T16:10:49.435Z,101909.09
2023-02-02T16:13:27.854Z,101912.47
2023-02-02T16:16:00.791Z,101915.88
2023-02-02T16:18:28.205Z,101926.22
2023-02-02T16:20:58.181Z,101918.31
2023-02-02T16:23:31.627Z,101926.00
2023-02-02T16:26:01.427Z,101921.56
2023-02-02T16:28:28.608Z,101925.75
2023-02-02T16:30:58.832Z,101932.53
2023-02-02T16:33:29.688Z,101929.78
2023-02-02T16:35:57.300Z,101943.53
2023-02-02T16:38:34.721Z,101945.16
2023-02-02T16:41:13.526Z,101946.78
2023-02-02T16:43:41.961Z,101950.16
2023-02-02T16:46:15.156Z,101954.34
2023-02-02T16:49:00.152Z,101959.41
2023-02-02T16:51:33.938Z,101949.69
2023-02-02T16:54:06.715Z,101952.19
2023-02-02T16:56:40.283Z,101947.69
2023-02-02T16:59:26.382Z,101948.44
2023-02-02T17:01:57.981Z,101950.88
2023-02-02T17:04:34.741Z,101946.41
2023-02-02T17:07:14.436Z,101947.97
2023-02-02T17:09:42.896Z,101951.31
2023-02-02T17:12:30.733Z,101947.75
2023-02-02T17:15:18.962Z,101949.31
2023-02-02T17:17:48.156Z,101950.03
2023-02-02T17:20:16.567Z,101940.38
2023-02-02T17:22:47.111Z,101946.31
2023-02-02T17:25:19.550Z,101946.13
2023-02-02T17:27:46.964Z,101950.34
2023-02-02T17:30:16.611Z,101958.78
2023-02-02T17:32:43.611Z,101955.25
2023-02-02T17:35:25.370Z,101951.66
2023-02-02T17:37:52.857Z,101949.81
2023-02-02T17:40:24.437Z,101951.47
2023-02-02T17:42:52.795Z,101950.53
2023-02-02T17:45:24.761Z,101943.53
2023-02-02T17:47:51.687Z,101935.63
2023-02-02T17:50:19.256Z,101933.91
2023-02-02T17:52:48.363Z,101939.06
2023-02-02T17:55:20.341Z,101945.97
2023-02-02T17:57:48.291Z,101945.81
2023-02-02T18:00:16.196Z,101940.56
2023-02-02T18:02:43.678Z,101941.38
2023-02-02T18:05:11.517Z,101938.72
2023-02-02T18:07:38.022Z,101937.84
2023-02-02T18:10:06.379Z,101944.69
2023-02-02T18:12:34.976Z,101947.25
2023-02-02T18:15:03.616Z,101946.34
2023-02-02T18:17:31.051Z,101948.03
2023-02-02T18:19:59.271Z,101944.59
2023-02-02T18:22:26.085Z,101937.66
2023-02-02T18:24:52.871Z,101936.75
2023-02-02T18:27:20.357Z,101936.75
2023-02-02T18:29:47.993Z,101927.22
2023-02-02T18:32:16.274Z,101931.53
2023-02-02T18:34:43.399Z,101930.63
2023-02-02T18:37:10.940Z,101928.94
2023-02-02T18:39:37.623Z,101929.84
2023-02-02T18:42:04.467Z,101929.84
2023-02-02T18:44:31.648Z,101924.69
2023-02-02T18:46:58.084Z,101930.78
2023-02-02T18:49:24.965Z,101926.41
2023-02-02T18:51:51.650Z,101929.88
2023-02-02T18:54:18.627Z,101924.69
2023-02-02T18:56:45.469Z,101925.59
2023-02-02T18:59:11.919Z,101916.09
2023-02-02T19:01:38.631Z,101916.97
2023-02-02T19:04:05.375Z,101911.78
2023-02-02T19:06:50.962Z,101898.81
2023-02-02T19:09:17.657Z,101884.13
2023-02-02T19:11:50.228Z,101886.75
2023-02-02T19:14:20.006Z,101884.22
2023-02-02T19:16:48.552Z,101882.47
2023-02-02T19:19:25.861Z,101882.47
2023-02-02T19:21:57.341Z,101868.66
2023-02-02T19:24:38.894Z,101866.97
2023-02-02T19:27:16.228Z,101861.91
2023-02-02T19:29:42.915Z,101862.78
2023-02-02T19:32:14.997Z,101868.06
2023-02-02T19:34:41.738Z,101868.09
2023-02-02T19:37:16.891Z,101861.25
2023-02-02T19:39:44.831Z,101857.84
2023-02-02T19:42:11.844Z,101850.94
2023-02-02T19:44:40.525Z,101847.56
2023-02-02T19:47:41.359Z,101846.75
2023-02-02T19:50:15.821Z,101845.06
2023-02-02T19:52:43.115Z,101846.88
2023-02-02T19:55:26.670Z,101847.81
2023-02-02T19:58:00.502Z,101843.47
2023-02-02T20:00:30.142Z,101844.38
2023-02-02T20:02:58.843Z,101842.72
2023-02-02T20:05:37.803Z,101832.38
2023-02-02T20:08:25.441Z,101837.63
2023-02-02T20:10:54.570Z,101826.44
2023-02-02T20:13:25.371Z,101826.47
2023-02-02T20:16:03.387Z,101824.78
2023-02-02T20:18:57.857Z,101819.63
2023-02-02T20:21:38.832Z,101811.88
2023-02-02T20:24:18.035Z,101806.75
2023-02-02T20:26:46.185Z,101802.44
2023-02-02T20:29:25.136Z,101801.66
2023-02-02T20:31:54.696Z,101796.53
2023-02-02T20:34:21.520Z,101795.69
2023-02-02T20:36:48.280Z,101804.44
2023-02-02T20:39:21.997Z,101797.56
2023-02-02T20:41:49.150Z,101799.38
2023-02-02T20:44:15.883Z,101792.47
2023-02-02T20:46:42.538Z,101795.13
2023-02-02T20:49:09.095Z,101799.50
2023-02-02T20:51:38.777Z,101799.56
2023-02-02T20:54:05.539Z,101794.38
2023-02-02T20:56:32.356Z,101790.97
2023-02-02T20:58:59.483Z,101790.09
2023-02-02T21:01:26.331Z,101777.09
2023-02-02T21:03:53.578Z,101779.69
2023-02-02T21:06:20.279Z,101773.63
2023-02-02T21:08:51.430Z,101764.94
2023-02-02T21:11:19.545Z,101757.19
2023-02-02T21:13:46.398Z,101758.06
2023-02-02T21:16:13.104Z,101748.56
2023-02-02T21:18:39.859Z,101750.38
2023-02-02T21:21:06.577Z,101748.72
2023-02-02T21:23:33.496Z,101752.16
2023-02-02T21:26:00.363Z,101750.44
2023-02-02T21:28:26.867Z,101752.19
2023-02-02T21:30:53.830Z,101757.38
2023-02-02T21:33:20.455Z,101753.94
2023-02-02T21:35:46.990Z,101750.47
2023-02-02T21:38:15.282Z,101754.84
2023-02-02T21:40:41.914Z,101757.41
2023-02-02T21:43:17.639Z,101754.84
2023-02-02T21:45:47.480Z,101749.69
2023-02-02T21:48:28.923Z,101743.66
2023-02-02T21:50:56.432Z,101741.97
2023-02-02T21:53:25.084Z,101738.50
2023-02-02T21:55:58.483Z,101725.53
2023-02-02T21:58:27.718Z,101722.91
2023-02-02T22:01:14.791Z,101707.31
2023-02-02T22:03:46.896Z,101700.38
2023-02-02T22:06:31.726Z,101692.59
2023-02-02T22:09:13.678Z,101685.69
2023-02-02T22:11:59.210Z,101677.81
2023-02-02T22:14:28.709Z,101677.81
2023-02-02T22:16:59.316Z,101666.59
2023-02-02T22:19:31.468Z,101663.19
2023-02-02T22:22:20.663Z,101663.22
2023-02-02T22:25:16.645Z,101658.84
2023-02-02T22:27:57.809Z,101643.31
2023-02-02T22:30:39.984Z,101623.44
2023-02-02T22:33:08.780Z,101615.66
2023-02-02T22:35:36.049Z,101606.13
2023-02-02T22:38:02.915Z,101602.66
2023-02-02T22:40:29.868Z,101587.09
2023-02-02T22:42:57.292Z,101598.38
2023-02-02T22:45:24.746Z,101596.63
2023-02-02T22:47:51.598Z,101594.91
2023-02-02T22:50:20.900Z,101591.44
2023-02-02T22:52:47.544Z,101586.22
2023-02-02T22:55:14.823Z,101575.91
2023-02-02T22:57:41.633Z,101566.41
2023-02-02T23:00:12.682Z,101556.03
2023-02-02T23:02:40.471Z,101552.59
2023-02-02T23:05:10.341Z,101551.69
2023-02-02T23:07:37.626Z,101556.84
2023-02-02T23:10:05.151Z,101554.25
2023-02-02T23:12:31.760Z,101538.69
2023-02-02T23:14:58.352Z,101523.16
2023-02-02T23:17:25.084Z,101511.94
2023-02-02T23:19:51.631Z,101516.25
2023-02-02T23:22:18.554Z,101507.59
2023-02-02T23:24:45.399Z,101506.72
2023-02-02T23:27:13.014Z,101492.88
2023-02-02T23:29:40.091Z,101485.13
2023-02-02T23:32:07.216Z,101480.78
2023-02-02T23:34:33.923Z,101486.00
2023-02-02T23:37:00.654Z,101476.53
2023-02-02T23:39:27.201Z,101462.69
2023-02-02T23:41:54.079Z,101446.31
2023-02-02T23:44:20.971Z,101432.50
2023-02-02T23:46:47.846Z,101448.94
2023-02-02T23:49:14.712Z,101447.22
2023-02-02T23:51:41.359Z,101448.09
2023-02-02T23:54:10.959Z,101442.94
2023-02-02T23:56:37.774Z,101436.06
2023-02-02T23:59:04.299Z,101443.88
